sensor_id;sensor_type;location;lat;lon;timestamp;pressure;altitude;pressure_sealevel;temperature;humidity
67397;BME280;57728;50.448;18.824;2023-04-22T00:01:25;97672.00;;;11.97;41.35
67397;BME280;57728;50.448;18.824;2023-04-22T00:03:27;97738.13;;;12.38;41.34
67397;BME280;57728;50.448;18.824;2023-04-22T00:05:29;97741.69;;;12.38;41.30
67397;BME280;57728;50.448;18.824;2023-04-22T00:07:31;97624.84;;;11.67;41.53
67397;BME280;57728;50.448;18.824;2023-04-22T00:09:32;97612.06;;;11.51;41.49
67397;BME280;57728;50.448;18.824;2023-04-22T00:11:34;97736.00;;;12.40;41.48
67397;BME280;57728;50.448;18.824;2023-04-22T00:13:35;97711.19;;;12.25;41.47
67397;BME280;57728;50.448;18.824;2023-04-22T00:15:37;97740.34;;;12.41;41.62
67397;BME280;57728;50.448;18.824;2023-04-22T00:17:39;97743.34;;;12.39;41.68
67397;BME280;57728;50.448;18.824;2023-04-22T00:19:40;97657.94;;;11.88;41.49
67397;BME280;57728;50.448;18.824;2023-04-22T00:21:42;97740.28;;;12.36;41.63
67397;BME280;57728;50.448;18.824;2023-04-22T00:23:44;97731.50;;;12.34;41.66
67397;BME280;57728;50.448;18.824;2023-04-22T00:25:46;97659.25;;;11.85;41.93
67397;BME280;57728;50.448;18.824;2023-04-22T00:27:48;97697.13;;;11.99;41.66
67397;BME280;57728;50.448;18.824;2023-04-22T00:29:50;97688.00;;;11.93;41.93
67397;BME280;57728;50.448;18.824;2023-04-22T00:31:51;97748.13;;;12.15;41.82
67397;BME280;57728;50.448;18.824;2023-04-22T00:33:52;97740.81;;;12.16;41.80
67397;BME280;57728;50.448;18.824;2023-04-22T00:35:54;97729.88;;;12.16;41.76
67397;BME280;57728;50.448;18.824;2023-04-22T00:37:56;97702.91;;;12.02;41.97
67397;BME280;57728;50.448;18.824;2023-04-22T00:39:58;97694.38;;;11.99;41.65
67397;BME280;57728;50.448;18.824;2023-04-22T00:42:01;97737.56;;;12.19;41.71
67397;BME280;57728;50.448;18.824;2023-04-22T00:44:03;97730.78;;;12.21;41.85
67397;BME280;57728;50.448;18.824;2023-04-22T00:46:05;97724.84;;;12.25;41.57
67397;BME280;57728;50.448;18.824;2023-04-22T00:48:08;97663.94;;;11.90;41.61
67397;BME280;57728;50.448;18.824;2023-04-22T00:50:09;97726.31;;;12.32;41.34
67397;BME280;57728;50.448;18.824;2023-04-22T00:52:11;97648.69;;;11.89;41.31
67397;BME280;57728;50.448;18.824;2023-04-22T00:54:13;97569.09;;;11.24;41.27
67397;BME280;57728;50.448;18.824;2023-04-22T00:56:14;97727.53;;;12.42;41.32
67397;BME280;57728;50.448;18.824;2023-04-22T00:58:16;97722.41;;;12.45;41.08
67397;BME280;57728;50.448;18.824;2023-04-22T01:00:21;97728.44;;;12.47;40.87
67397;BME280;57728;50.448;18.824;2023-04-22T01:02:27;97691.19;;;12.19;40.96
67397;BME280;57728;50.448;18.824;2023-04-22T01:04:30;97721.50;;;12.39;41.08
67397;BME280;57728;50.448;18.824;2023-04-22T01:06:34;97726.44;;;12.43;41.12
67397;BME280;57728;50.448;18.824;2023-04-22T01:08:39;97729.38;;;12.36;41.24
67397;BME280;57728;50.448;18.824;2023-04-22T01:10:41;97579.75;;;11.43;41.32
67397;BME280;57728;50.448;18.824;2023-04-22T01:12:44;97702.25;;;12.12;41.39
67397;BME280;57728;50.448;18.824;2023-04-22T01:14:46;97705.16;;;12.06;41.39
67397;BME280;57728;50.448;18.824;2023-04-22T01:16:49;97684.69;;;11.91;41.66
67397;BME280;57728;50.448;18.824;2023-04-22T01:18:53;97690.00;;;11.81;41.59
67397;BME280;57728;50.448;18.824;2023-04-22T01:20:56;97736.91;;;12.12;41.67
67397;BME280;57728;50.448;18.824;2023-04-22T01:23:02;97731.38;;;12.07;41.81
67397;BME280;57728;50.448;18.824;2023-04-22T01:25:10;97728.88;;;12.05;41.84
67397;BME280;57728;50.448;18.824;2023-04-22T01:27:13;97676.25;;;11.59;41.84
67397;BME280;57728;50.448;18.824;2023-04-22T01:29:15;97731.88;;;12.03;41.72
67397;BME280;57728;50.448;18.824;2023-04-22T01:31:17;97729.94;;;12.04;41.63
67397;BME280;57728;50.448;18.824;2023-04-22T01:33:19;97729.13;;;12.03;41.62
67397;BME280;57728;50.448;18.824;2023-04-22T01:35:21;97729.94;;;12.04;41.62
67397;BME280;57728;50.448;18.824;2023-04-22T01:37:22;97622.50;;;11.25;41.53
67397;BME280;57728;50.448;18.824;2023-04-22T01:39:25;97726.97;;;12.06;41.60
67397;BME280;57728;50.448;18.824;2023-04-22T01:41:27;97563.88;;;11.06;41.53
67397;BME280;57728;50.448;18.824;2023-04-22T01:43:29;97701.56;;;11.88;41.33
67397;BME280;57728;50.448;18.824;2023-04-22T01:45:31;97538.50;;;10.88;41.41
67397;BME280;57728;50.448;18.824;2023-04-22T01:47:33;97735.34;;;12.16;41.28
67397;BME280;57728;50.448;18.824;2023-04-22T01:49:34;97706.16;;;11.99;41.25
67397;BME280;57728;50.448;18.824;2023-04-22T01:51:36;97730.19;;;12.19;41.28
67397;BME280;57728;50.448;18.824;2023-04-22T01:53:38;97714.41;;;12.04;41.23
67397;BME280;57728;50.448;18.824;2023-04-22T01:55:40;97717.13;;;12.04;40.90
67397;BME280;57728;50.448;18.824;2023-04-22T01:57:46;97661.06;;;11.80;40.91
67397;BME280;57728;50.448;18.824;2023-04-22T01:59:47;97662.06;;;11.91;40.79
67397;BME280;57728;50.448;18.824;2023-04-22T02:01:49;97704.16;;;12.12;40.66
67397;BME280;57728;50.448;18.824;2023-04-22T02:03:51;97704.72;;;12.14;40.42
67397;BME280;57728;50.448;18.824;2023-04-22T02:05:53;97727.72;;;12.35;40.46
67397;BME280;57728;50.448;18.824;2023-04-22T02:07:54;97692.81;;;12.20;40.47
67397;BME280;57728;50.448;18.824;2023-04-22T02:09:56;97657.94;;;12.05;40.14
67397;BME280;57728;50.448;18.824;2023-04-22T02:11:57;97725.72;;;12.47;40.23
67397;BME280;57728;50.448;18.824;2023-04-22T02:13:59;97718.44;;;12.53;40.02
67397;BME280;57728;50.448;18.824;2023-04-22T02:16:01;97721.47;;;12.56;39.95
67397;BME280;57728;50.448;18.824;2023-04-22T02:18:02;97551.75;;;11.47;39.44
67397;BME280;57728;50.448;18.824;2023-04-22T02:20:04;97685.19;;;12.39;39.66
67397;BME280;57728;50.448;18.824;2023-04-22T02:22:07;97647.69;;;12.12;39.49
67397;BME280;57728;50.448;18.824;2023-04-22T02:24:08;97726.31;;;12.71;39.24
67397;BME280;57728;50.448;18.824;2023-04-22T02:26:09;97641.81;;;12.20;38.98
67397;BME280;57728;50.448;18.824;2023-04-22T02:28:12;97724.50;;;12.77;39.12
67397;BME280;57728;50.448;18.824;2023-04-22T02:30:13;97688.78;;;12.62;38.98
67397;BME280;57728;50.448;18.824;2023-04-22T02:32:15;97695.06;;;12.62;39.05
67397;BME280;57728;50.448;18.824;2023-04-22T02:34:17;97705.53;;;12.70;39.13
67397;BME280;57728;50.448;18.824;2023-04-22T02:36:19;97719.31;;;12.81;39.16
67397;BME280;57728;50.448;18.824;2023-04-22T02:38:20;97700.59;;;12.67;38.88
67397;BME280;57728;50.448;18.824;2023-04-22T02:40:22;97693.91;;;12.58;38.92
67397;BME280;57728;50.448;18.824;2023-04-22T02:42:25;97692.28;;;12.57;38.79
67397;BME280;57728;50.448;18.824;2023-04-22T02:44:26;97680.13;;;12.48;38.96
67397;BME280;57728;50.448;18.824;2023-04-22T02:46:29;97682.84;;;12.48;38.91
67397;BME280;57728;50.448;18.824;2023-04-22T02:48:30;97686.66;;;12.47;38.69
67397;BME280;57728;50.448;18.824;2023-04-22T02:50:31;97665.25;;;12.38;38.73
67397;BME280;57728;50.448;18.824;2023-04-22T02:52:33;97726.16;;;12.78;38.51
67397;BME280;57728;50.448;18.824;2023-04-22T02:54:35;97682.97;;;12.58;38.37
67397;BME280;57728;50.448;18.824;2023-04-22T02:56:36;97723.53;;;12.88;38.22
67397;BME280;57728;50.448;18.824;2023-04-22T02:58:38;97691.97;;;12.76;38.03
67397;BME280;57728;50.448;18.824;2023-04-22T03:00:39;97681.84;;;12.76;37.89
67397;BME280;57728;50.448;18.824;2023-04-22T03:02:41;97591.28;;;12.18;37.73
67397;BME280;57728;50.448;18.824;2023-04-22T03:04:46;97713.94;;;13.08;37.40
67397;BME280;57728;50.448;18.824;2023-04-22T03:06:48;97715.41;;;13.16;37.28
67397;BME280;57728;50.448;18.824;2023-04-22T03:08:49;97675.31;;;12.99;37.10
67397;BME280;57728;50.448;18.824;2023-04-22T03:10:51;97715.50;;;13.26;37.28
67397;BME280;57728;50.448;18.824;2023-04-22T03:12:53;97523.66;;;12.03;37.08
67397;BME280;57728;50.448;18.824;2023-04-22T03:14:55;97682.84;;;13.14;36.83
67397;BME280;57728;50.448;18.824;2023-04-22T03:16:58;97701.28;;;13.24;37.04
67397;BME280;57728;50.448;18.824;2023-04-22T03:19:00;97716.16;;;13.33;37.02
67397;BME280;57728;50.448;18.824;2023-04-22T03:21:03;97717.50;;;13.31;37.23
67397;BME280;57728;50.448;18.824;2023-04-22T03:23:05;97697.56;;;13.08;37.28
67397;BME280;57728;50.448;18.824;2023-04-22T03:25:09;97719.19;;;13.15;37.62
67397;BME280;57728;50.448;18.824;2023-04-22T03:27:11;97657.97;;;12.66;37.93
67397;BME280;57728;50.448;18.824;2023-04-22T03:29:14;97584.78;;;12.02;38.33
67397;BME280;57728;50.448;18.824;2023-04-22T03:31:16;97697.78;;;12.62;38.69
67397;BME280;57728;50.448;18.824;2023-04-22T03:33:18;97718.56;;;12.63;38.90
67397;BME280;57728;50.448;18.824;2023-04-22T03:35:29;97715.06;;;12.46;39.13
67397;BME280;57728;50.448;18.824;2023-04-22T03:37:33;97643.63;;;11.81;39.44
67397;BME280;57728;50.448;18.824;2023-04-22T03:39:36;97718.38;;;12.14;39.78
67397;BME280;57728;50.448;18.824;2023-04-22T03:41:38;97657.31;;;11.52;39.93
67397;BME280;57728;50.448;18.824;2023-04-22T03:43:40;97689.34;;;11.74;40.44
67397;BME280;57728;50.448;18.824;2023-04-22T03:45:43;97721.72;;;11.87;40.32
67397;BME280;57728;50.448;18.824;2023-04-22T03:47:53;97593.88;;;10.94;40.45
67397;BME280;57728;50.448;18.824;2023-04-22T03:50:07;97676.50;;;11.57;40.25
67397;BME280;57728;50.448;18.824;2023-04-22T03:52:10;97652.75;;;11.41;40.26
67397;BME280;57728;50.448;18.824;2023-04-22T03:54:16;97719.59;;;11.89;40.22
67397;BME280;57728;50.448;18.824;2023-04-22T03:56:24;97650.47;;;11.49;40.04
67397;BME280;57728;50.448;18.824;2023-04-22T03:58:29;97684.69;;;11.74;40.17
67397;BME280;57728;50.448;18.824;2023-04-22T04:00:33;97654.78;;;11.62;40.22
67397;BME280;57728;50.448;18.824;2023-04-22T04:02:42;97696.63;;;11.85;40.07
67397;BME280;57728;50.448;18.824;2023-04-22T04:04:48;97742.94;;;12.14;40.07
67397;BME280;57728;50.448;18.824;2023-04-22T04:06:51;97662.38;;;11.77;39.76
67397;BME280;57728;50.448;18.824;2023-04-22T04:08:54;97738.38;;;12.19;40.15
67397;BME280;57728;50.448;18.824;2023-04-22T04:10:55;97687.56;;;11.96;40.22
67397;BME280;57728;50.448;18.824;2023-04-22T04:12:58;97574.56;;;11.24;40.33
67397;BME280;57728;50.448;18.824;2023-04-22T04:15:01;97655.50;;;11.75;40.10
67397;BME280;57728;50.448;18.824;2023-04-22T04:17:03;97524.50;;;10.96;40.15
67397;BME280;57728;50.448;18.824;2023-04-22T04:19:08;97654.69;;;11.74;40.21
67397;BME280;57728;50.448;18.824;2023-04-22T04:21:12;97553.44;;;11.02;40.83
67397;BME280;57728;50.448;18.824;2023-04-22T04:23:19;97645.50;;;11.46;41.39
67397;BME280;57728;50.448;18.824;2023-04-22T04:25:22;97646.63;;;11.33;41.48
67397;BME280;57728;50.448;18.824;2023-04-22T04:27:23;97524.63;;;10.44;41.78
67397;BME280;57728;50.448;18.824;2023-04-22T04:29:27;97733.13;;;11.67;41.63
67397;BME280;57728;50.448;18.824;2023-04-22T04:31:43;97656.19;;;11.19;41.57
67397;BME280;57728;50.448;18.824;2023-04-22T04:33:44;97704.16;;;11.49;41.64
67397;BME280;57728;50.448;18.824;2023-04-22T04:35:46;97495.78;;;10.19;41.46
67397;BME280;57728;50.448;18.824;2023-04-22T04:37:52;97738.66;;;11.72;41.41
67397;BME280;57728;50.448;18.824;2023-04-22T04:39:53;97679.88;;;11.47;41.14
67397;BME280;57728;50.448;18.824;2023-04-22T04:41:58;97741.06;;;11.85;41.24
67397;BME280;57728;50.448;18.824;2023-04-22T04:44:03;97717.28;;;11.81;41.09
67397;BME280;57728;50.448;18.824;2023-04-22T04:46:08;97703.94;;;11.84;40.96
67397;BME280;57728;50.448;18.824;2023-04-22T04:48:12;97697.88;;;11.94;40.78
67397;BME280;57728;50.448;18.824;2023-04-22T04:50:18;97717.81;;;12.12;41.06
67397;BME280;57728;50.448;18.824;2023-04-22T04:52:23;97699.78;;;12.11;41.11
67397;BME280;57728;50.448;18.824;2023-04-22T04:54:26;97690.94;;;12.03;40.89
67397;BME280;57728;50.448;18.824;2023-04-22T04:56:29;97744.22;;;12.45;40.47
67397;BME280;57728;50.448;18.824;2023-04-22T04:58:31;97570.75;;;11.42;40.48
67397;BME280;57728;50.448;18.824;2023-04-22T05:01:02;97741.16;;;12.59;40.24
67397;BME280;57728;50.448;18.824;2023-04-22T05:03:05;97708.19;;;12.43;40.12
67397;BME280;57728;50.448;18.824;2023-04-22T05:05:07;97750.97;;;12.77;39.93
67397;BME280;57728;50.448;18.824;2023-04-22T05:07:11;97674.00;;;12.41;39.57
67397;BME280;57728;50.448;18.824;2023-04-22T05:09:15;97705.47;;;12.65;39.27
67397;BME280;57728;50.448;18.824;2023-04-22T05:11:19;97743.88;;;12.98;39.39
67397;BME280;57728;50.448;18.824;2023-04-22T05:13:23;97757.94;;;13.06;39.29
67397;BME280;57728;50.448;18.824;2023-04-22T05:15:25;97741.91;;;13.15;39.37
67397;BME280;57728;50.448;18.824;2023-04-22T05:17:27;97660.81;;;12.77;39.30
67397;BME280;57728;50.448;18.824;2023-04-22T05:19:29;97741.34;;;13.35;39.52
67397;BME280;57728;50.448;18.824;2023-04-22T05:21:32;97690.03;;;13.20;39.46
67397;BME280;57728;50.448;18.824;2023-04-22T05:23:33;97534.94;;;12.29;39.45
67397;BME280;57728;50.448;18.824;2023-04-22T05:25:35;97731.78;;;13.60;39.49
67397;BME280;57728;50.448;18.824;2023-04-22T05:27:43;97598.59;;;12.79;39.92
67397;BME280;57728;50.448;18.824;2023-04-22T05:29:46;97745.03;;;13.73;39.81
67397;BME280;57728;50.448;18.824;2023-04-22T05:31:49;97660.84;;;13.26;39.63
67397;BME280;57728;50.448;18.824;2023-04-22T05:33:51;97745.09;;;13.79;39.51
67397;BME280;57728;50.448;18.824;2023-04-22T05:35:52;97707.13;;;13.55;39.06
67397;BME280;57728;50.448;18.824;2023-04-22T05:37:54;97674.41;;;13.38;39.00
67397;BME280;57728;50.448;18.824;2023-04-22T05:39:56;97688.94;;;13.44;39.40
67397;BME280;57728;50.448;18.824;2023-04-22T05:41:58;97711.03;;;13.64;39.19
67397;BME280;57728;50.448;18.824;2023-04-22T05:43:59;97756.94;;;13.89;38.92
67397;BME280;57728;50.448;18.824;2023-04-22T05:46:02;97581.56;;;12.99;38.92
67397;BME280;57728;50.448;18.824;2023-04-22T05:48:06;97607.72;;;13.17;39.11
67397;BME280;57728;50.448;18.824;2023-04-22T05:50:13;97605.81;;;13.17;39.38
67397;BME280;57728;50.448;18.824;2023-04-22T05:52:25;97738.84;;;14.16;38.90
67397;BME280;57728;50.448;18.824;2023-04-22T05:54:36;97739.72;;;14.21;38.60
67397;BME280;57728;50.448;18.824;2023-04-22T05:56:38;97748.28;;;14.30;38.53
67397;BME280;57728;50.448;18.824;2023-04-22T05:58:40;97617.16;;;13.58;38.41
67397;BME280;57728;50.448;18.824;2023-04-22T06:00:48;97604.00;;;13.55;38.04
67397;BME280;57728;50.448;18.824;2023-04-22T06:03:24;97744.03;;;14.50;37.79
67397;BME280;57728;50.448;18.824;2023-04-22T06:05:27;97658.00;;;14.03;37.34
67397;BME280;57728;50.448;18.824;2023-04-22T06:07:28;97625.34;;;13.91;37.36
67397;BME280;57728;50.448;18.824;2023-04-22T06:09:29;97572.63;;;13.63;37.32
67397;BME280;57728;50.448;18.824;2023-04-22T06:11:32;97559.44;;;13.55;36.90
67397;BME280;57728;50.448;18.824;2023-04-22T06:13:33;97744.81;;;14.77;36.93
67397;BME280;57728;50.448;18.824;2023-04-22T06:15:35;97754.97;;;14.82;36.94
67397;BME280;57728;50.448;18.824;2023-04-22T06:17:37;97613.31;;;13.92;36.79
67397;BME280;57728;50.448;18.824;2023-04-22T06:19:39;97752.00;;;14.94;36.95
67397;BME280;57728;50.448;18.824;2023-04-22T06:21:40;97714.09;;;14.75;36.79
67397;BME280;57728;50.448;18.824;2023-04-22T06:23:43;97664.91;;;14.58;36.75
67397;BME280;57728;50.448;18.824;2023-04-22T06:25:45;97548.47;;;13.92;36.97
67397;BME280;57728;50.448;18.824;2023-04-22T06:27:47;97749.13;;;15.26;37.08
67397;BME280;57728;50.448;18.824;2023-04-22T06:29:49;97557.88;;;14.07;36.51
67397;BME280;57728;50.448;18.824;2023-04-22T06:31:51;97765.91;;;15.40;36.77
67397;BME280;57728;50.448;18.824;2023-04-22T06:33:54;97573.06;;;14.40;37.04
67397;BME280;57728;50.448;18.824;2023-04-22T06:35:56;97726.72;;;15.40;37.19
67397;BME280;57728;50.448;18.824;2023-04-22T06:37:58;97590.75;;;14.65;36.81
67397;BME280;57728;50.448;18.824;2023-04-22T06:40:05;97678.13;;;15.35;37.03
67397;BME280;57728;50.448;18.824;2023-04-22T06:42:27;97590.28;;;14.94;36.88
67397;BME280;57728;50.448;18.824;2023-04-22T06:44:47;97750.72;;;16.01;37.10
67397;BME280;57728;50.448;18.824;2023-04-22T06:46:57;97752.66;;;16.11;37.02
67397;BME280;57728;50.448;18.824;2023-04-22T06:49:18;97745.25;;;16.22;36.70
67397;BME280;57728;50.448;18.824;2023-04-22T06:51:49;97705.16;;;16.05;36.18
67397;BME280;57728;50.448;18.824;2023-04-22T06:53:51;97712.28;;;16.16;35.92
67397;BME280;57728;50.448;18.824;2023-04-22T06:55:53;97664.50;;;15.97;35.83
67397;BME280;57728;50.448;18.824;2023-04-22T06:57:55;97737.78;;;16.43;36.09
67397;BME280;57728;50.448;18.824;2023-04-22T06:59:56;97685.09;;;16.15;35.49
67397;BME280;57728;50.448;18.824;2023-04-22T07:02:01;97673.03;;;16.11;35.55
67397;BME280;57728;50.448;18.824;2023-04-22T07:04:04;97717.50;;;16.39;35.15
67397;BME280;57728;50.448;18.824;2023-04-22T07:06:05;97752.34;;;16.69;35.21
67397;BME280;57728;50.448;18.824;2023-04-22T07:08:08;97693.59;;;16.34;35.10
67397;BME280;57728;50.448;18.824;2023-04-22T07:10:11;97714.41;;;16.66;35.78
67397;BME280;57728;50.448;18.824;2023-04-22T07:12:21;97756.19;;;16.94;34.68
67397;BME280;57728;50.448;18.824;2023-04-22T07:14:25;97728.41;;;16.80;34.63
67397;BME280;57728;50.448;18.824;2023-04-22T07:16:27;97580.53;;;15.91;34.73
67397;BME280;57728;50.448;18.824;2023-04-22T07:18:28;97710.53;;;16.93;34.48
67397;BME280;57728;50.448;18.824;2023-04-22T07:20:30;97749.75;;;17.24;34.20
67397;BME280;57728;50.448;18.824;2023-04-22T07:22:31;97728.88;;;17.13;33.86
67397;BME280;57728;50.448;18.824;2023-04-22T07:24:33;97755.97;;;17.45;33.76
67397;BME280;57728;50.448;18.824;2023-04-22T07:26:35;97714.25;;;17.28;33.10
67397;BME280;57728;50.448;18.824;2023-04-22T07:28:36;97754.84;;;17.51;32.85
67397;BME280;57728;50.448;18.824;2023-04-22T07:30:38;97740.00;;;17.47;32.46
67397;BME280;57728;50.448;18.824;2023-04-22T07:32:40;97714.97;;;17.49;32.61
67397;BME280;57728;50.448;18.824;2023-04-22T07:34:41;97759.09;;;17.78;32.86
67397;BME280;57728;50.448;18.824;2023-04-22T07:36:42;97734.66;;;17.72;32.24
67397;BME280;57728;50.448;18.824;2023-04-22T07:38:45;97752.41;;;17.95;32.63
67397;BME280;57728;50.448;18.824;2023-04-22T07:40:46;97757.63;;;18.01;32.08
67397;BME280;57728;50.448;18.824;2023-04-22T07:42:47;97733.44;;;17.93;32.11
67397;BME280;57728;50.448;18.824;2023-04-22T07:44:49;97757.78;;;18.15;32.39
67397;BME280;57728;50.448;18.824;2023-04-22T07:46:50;97743.25;;;18.10;32.90
67397;BME280;57728;50.448;18.824;2023-04-22T07:48:52;97720.19;;;17.95;32.00
67397;BME280;57728;50.448;18.824;2023-04-22T07:50:54;97708.34;;;17.95;31.49
67397;BME280;57728;50.448;18.824;2023-04-22T07:52:55;97760.75;;;18.24;31.33
67397;BME280;57728;50.448;18.824;2023-04-22T07:54:56;97740.19;;;18.11;31.27
67397;BME280;57728;50.448;18.824;2023-04-22T07:56:58;97747.59;;;18.16;31.54
67397;BME280;57728;50.448;18.824;2023-04-22T07:59:02;97759.06;;;18.28;31.65
67397;BME280;57728;50.448;18.824;2023-04-22T08:01:04;97668.72;;;17.85;31.90
67397;BME280;57728;50.448;18.824;2023-04-22T08:03:06;97737.75;;;18.39;32.07
67397;BME280;57728;50.448;18.824;2023-04-22T08:05:07;97701.25;;;18.23;31.79
67397;BME280;57728;50.448;18.824;2023-04-22T08:07:08;97709.09;;;18.40;31.17
67397;BME280;57728;50.448;18.824;2023-04-22T08:09:11;97712.28;;;18.52;29.96
67397;BME280;57728;50.448;18.824;2023-04-22T08:11:12;97684.78;;;18.42;30.59
67397;BME280;57728;50.448;18.824;2023-04-22T08:13:13;97743.63;;;18.91;29.74
67397;BME280;57728;50.448;18.824;2023-04-22T08:15:15;97745.47;;;18.96;29.58
67397;BME280;57728;50.448;18.824;2023-04-22T08:17:17;97763.00;;;19.10;29.91
67397;BME280;57728;50.448;18.824;2023-04-22T08:19:21;97651.94;;;18.51;29.76
67397;BME280;57728;50.448;18.824;2023-04-22T08:21:23;97658.13;;;18.62;29.66
67397;BME280;57728;50.448;18.824;2023-04-22T08:23:25;97646.63;;;18.54;29.53
67397;BME280;57728;50.448;18.824;2023-04-22T08:25:27;97753.81;;;19.39;29.07
67397;BME280;57728;50.448;18.824;2023-04-22T08:27:29;97750.13;;;19.24;28.72
67397;BME280;57728;50.448;18.824;2023-04-22T08:29:30;97738.81;;;19.26;28.98
67397;BME280;57728;50.448;18.824;2023-04-22T08:31:33;97590.81;;;18.44;28.96
67397;BME280;57728;50.448;18.824;2023-04-22T08:33:35;97718.28;;;19.32;29.28
67397;BME280;57728;50.448;18.824;2023-04-22T08:35:37;97748.69;;;19.51;29.03
67397;BME280;57728;50.448;18.824;2023-04-22T08:37:39;97755.84;;;19.52;28.22
67397;BME280;57728;50.448;18.824;2023-04-22T08:39:42;97731.59;;;19.30;28.49
67397;BME280;57728;50.448;18.824;2023-04-22T08:41:43;97752.94;;;19.44;28.64
67397;BME280;57728;50.448;18.824;2023-04-22T08:43:46;97709.34;;;19.21;29.29
67397;BME280;57728;50.448;18.824;2023-04-22T08:45:49;97752.72;;;19.59;29.50
67397;BME280;57728;50.448;18.824;2023-04-22T08:47:53;97749.91;;;19.64;29.05
67397;BME280;57728;50.448;18.824;2023-04-22T08:49:54;97732.13;;;19.51;28.82
67397;BME280;57728;50.448;18.824;2023-04-22T08:51:57;97720.91;;;19.42;28.76
67397;BME280;57728;50.448;18.824;2023-04-22T08:53:58;97724.81;;;19.41;29.26
67397;BME280;57728;50.448;18.824;2023-04-22T08:56:00;97726.63;;;19.51;28.72
67397;BME280;57728;50.448;18.824;2023-04-22T08:58:03;97711.16;;;19.50;28.42
67397;BME280;57728;50.448;18.824;2023-04-22T09:00:06;97698.63;;;19.58;28.81
67397;BME280;57728;50.448;18.824;2023-04-22T09:02:18;97729.25;;;20.00;28.14
67397;BME280;57728;50.448;18.824;2023-04-22T09:04:21;97735.91;;;20.32;27.85
67397;BME280;57728;50.448;18.824;2023-04-22T09:06:23;97667.00;;;20.21;28.40
67397;BME280;57728;50.448;18.824;2023-04-22T09:08:25;97598.72;;;20.08;28.13
67397;BME280;57728;50.448;18.824;2023-04-22T09:10:28;97652.69;;;20.94;27.63
67397;BME280;57728;50.448;18.824;2023-04-22T09:12:30;97695.22;;;21.76;27.35
67397;BME280;57728;50.448;18.824;2023-04-22T09:14:32;97517.59;;;21.33;26.77
67397;BME280;57728;50.448;18.824;2023-04-22T09:16:46;97627.22;;;22.87;26.66
67397;BME280;57728;50.448;18.824;2023-04-22T09:18:49;97660.41;;;23.67;25.18
67397;BME280;57728;50.448;18.824;2023-04-22T09:20:54;97724.94;;;24.87;25.15
67397;BME280;57728;50.448;18.824;2023-04-22T09:23:02;97707.81;;;25.45;24.42
67397;BME280;57728;50.448;18.824;2023-04-22T09:25:17;97730.78;;;26.35;24.00
67397;BME280;57728;50.448;18.824;2023-04-22T09:27:22;97738.09;;;27.06;23.01
67397;BME280;57728;50.448;18.824;2023-04-22T09:29:29;97600.66;;;27.01;22.88
67397;BME280;57728;50.448;18.824;2023-04-22T09:31:31;97684.47;;;28.03;22.60
67397;BME280;57728;50.448;18.824;2023-04-22T09:33:32;97729.75;;;28.78;21.76
67397;BME280;57728;50.448;18.824;2023-04-22T09:35:40;97725.97;;;29.18;21.44
67397;BME280;57728;50.448;18.824;2023-04-22T09:37:42;97727.78;;;29.58;20.83
67397;BME280;57728;50.448;18.824;2023-04-22T09:39:47;97710.09;;;29.90;19.95
67397;BME280;57728;50.448;18.824;2023-04-22T09:41:53;97729.59;;;30.41;20.46
67397;BME280;57728;50.448;18.824;2023-04-22T09:43:57;97670.19;;;30.39;20.06
67397;BME280;57728;50.448;18.824;2023-04-22T09:46:00;97727.28;;;30.86;18.20
67397;BME280;57728;50.448;18.824;2023-04-22T09:48:13;97698.84;;;30.68;18.67
67397;BME280;57728;50.448;18.824;2023-04-22T09:50:19;97717.16;;;31.01;18.05
67397;BME280;57728;50.448;18.824;2023-04-22T09:54:28;97606.47;;;30.63;18.15
67397;BME280;57728;50.448;18.824;2023-04-22T09:56:48;97712.94;;;31.37;18.10
67397;BME280;57728;50.448;18.824;2023-04-22T09:58:51;97590.63;;;30.74;18.03
67397;BME280;57728;50.448;18.824;2023-04-22T10:00:56;97703.56;;;31.57;17.44
67397;BME280;57728;50.448;18.824;2023-04-22T10:02:59;97631.09;;;31.19;17.31
67397;BME280;57728;50.448;18.824;2023-04-22T10:05:01;97634.81;;;31.27;17.46
67397;BME280;57728;50.448;18.824;2023-04-22T10:07:04;97694.66;;;31.78;17.38
67397;BME280;57728;50.448;18.824;2023-04-22T10:09:06;97692.34;;;31.83;17.07
67397;BME280;57728;50.448;18.824;2023-04-22T10:11:09;97679.69;;;31.70;16.76
67397;BME280;57728;50.448;18.824;2023-04-22T10:13:11;97680.44;;;31.67;16.47
67397;BME280;57728;50.448;18.824;2023-04-22T10:15:12;97711.94;;;31.76;15.89
67397;BME280;57728;50.448;18.824;2023-04-22T10:17:16;97487.41;;;30.44;16.42
67397;BME280;57728;50.448;18.824;2023-04-22T10:19:22;97697.63;;;32.15;16.98
67397;BME280;57728;50.448;18.824;2023-04-22T10:21:26;97571.94;;;31.39;16.70
67397;BME280;57728;50.448;18.824;2023-04-22T10:23:31;97697.03;;;32.33;16.88
67397;BME280;57728;50.448;18.824;2023-04-22T10:25:34;97607.75;;;32.03;16.63
67397;BME280;57728;50.448;18.824;2023-04-22T10:27:37;97580.00;;;32.05;16.40
67397;BME280;57728;50.448;18.824;2023-04-22T10:29:40;97675.97;;;32.98;15.87
67397;BME280;57728;50.448;18.824;2023-04-22T10:31:53;97679.47;;;33.29;15.44
67397;BME280;57728;50.448;18.824;2023-04-22T10:34:14;97682.94;;;33.60;15.51
67397;BME280;57728;50.448;18.824;2023-04-22T10:36:16;97550.72;;;32.99;16.12
67397;BME280;57728;50.448;18.824;2023-04-22T10:38:20;97669.00;;;33.89;16.23
67397;BME280;57728;50.448;18.824;2023-04-22T10:40:22;97500.69;;;32.85;16.31
67397;BME280;57728;50.448;18.824;2023-04-22T10:42:27;97660.19;;;34.01;16.18
67397;BME280;57728;50.448;18.824;2023-04-22T10:48:50;97520.16;;;32.12;14.94
67397;BME280;57728;50.448;18.824;2023-04-22T10:50:52;97595.34;;;32.45;15.18
67397;BME280;57728;50.448;18.824;2023-04-22T10:52:56;97672.28;;;32.90;15.87